Loretteville, Canada
Current Conditions -  °F | °C
As of 11:00 PM on Thursday 27 Nov 2014 (Local Time) from CYQB Reporting Station
Broken Clouds Broken Clouds  
Wind Chill: 19°   Ceiling: 16000
Heat Index: 25°   Visibility: 15mi
Dew Point: 16°   Wind: 5mph
Humidity: 69%   Direction: 90°E
Pressure: 30.04"   Gusts: NA
Location:  46.85°N, 71.36°W
Report Text: CYQB 280400Z 09004KT 15SM BKN160 M04/M09 A3004 RMK AC6 SLP176
Loading
Personal Weather Stations






























Interactive Weather Map New forecast layout! Learn more

10-Day Weather Forecast

Advertisements
Track Severe Weather on mobile